This is the latest recevied weather packets stored in our database for station/object DC1MBB-9. If no packets are shown the sender has not sent any weather packets the latest 1 day(s).
| Time | Temp. | Humidity | Pressure | Rain* | Wind** | Luminosity | Snow |
|---|---|---|---|---|---|---|---|
| 1777956078 | 14.44° C | 78% | 952 hPa | - | 0 m/s | - | - |
| 1777955718 | 15° C | 76% | 952 hPa | - | 0 m/s | - | - |
| 1777955357 | 15° C | 77% | 952 hPa | - | 0 m/s | - | - |
| 1777954996 | 15° C | 77% | 952 hPa | - | 0 m/s | - | - |
| 1777954635 | 15° C | 76% | 952 hPa | - | 0 m/s | - | - |
| 1777954275 | 14.44° C | 76% | 952 hPa | - | 0 m/s | - | - |
| 1777953914 | 15° C | 73% | 952 hPa | - | 0 m/s | - | - |
| 1777953553 | 15° C | 72% | 952 hPa | - | 0 m/s | - | - |
| 1777953192 | 15° C | 72% | 952 hPa | - | 0 m/s | - | - |
| 1777952832 | 15° C | 73% | 952 hPa | - | 0 m/s | - | - |
| 1777952471 | 15° C | 71% | 952 hPa | - | 0 m/s | - | - |
| 1777952110 | 15° C | 72% | 952 hPa | - | 0 m/s | - | - |
| 1777951749 | 15° C | 72% | 952 hPa | - | 0 m/s | - | - |
| 1777951388 | 15.56° C | 72% | 952 hPa | - | 0 m/s | - | - |
| 1777951028 | 15° C | 74% | 952 hPa | - | 0 m/s | - | - |
| 1777950667 | 15.56° C | 73% | 952 hPa | - | 0 m/s | - | - |
| 1777950306 | 15.56° C | 72% | 952 hPa | - | 0 m/s | - | - |
| 1777949945 | 15.56° C | 71% | 952 hPa | - | 0 m/s | - | - |
| 1777949585 | 15.56° C | 71% | 952 hPa | - | 0 m/s | - | - |
| 1777949224 | 16.11° C | 70% | 952 hPa | - | 0 m/s | - | - |
| 1777948863 | 15.56° C | 72% | 952 hPa | - | 0 m/s | - | - |
| 1777948502 | 16.11° C | 71% | 953 hPa | - | 0 m/s | - | - |
| 1777948141 | 15° C | 72% | 953 hPa | - | 0 m/s | - | - |
| 1777947781 | 15.56° C | 70% | 953 hPa | - | 0 m/s | - | - |
| 1777947420 | 16.67° C | 68% | 953 hPa | - | 0 m/s | - | - |
* Rain since midnight (hover to see other rain measurements)
** Current wind speed in m/s (hover to see current wind gust speed)